sensor_id;sensor_type;location;lat;lon;timestamp;P1;durP1;ratioP1;P2;durP2;ratioP2
15408;SDS011;7803;48.130;13.788;2022-08-27T00:02:57;5.53;;;5.03;;
15408;SDS011;7803;48.130;13.788;2022-08-27T00:05:59;4.95;;;4.45;;
15408;SDS011;7803;48.130;13.788;2022-08-27T00:09:03;5.20;;;4.78;;
15408;SDS011;7803;48.130;13.788;2022-08-27T00:12:05;5.20;;;4.80;;
15408;SDS011;7803;48.130;13.788;2022-08-27T00:15:08;6.70;;;4.95;;
15408;SDS011;7803;48.130;13.788;2022-08-27T00:18:11;6.03;;;5.10;;
15408;SDS011;7803;48.130;13.788;2022-08-27T00:21:13;6.30;;;5.70;;
15408;SDS011;7803;48.130;13.788;2022-08-27T00:24:17;6.10;;;5.50;;
15408;SDS011;7803;48.130;13.788;2022-08-27T00:27:19;5.70;;;4.60;;
15408;SDS011;7803;48.130;13.788;2022-08-27T00:30:21;5.47;;;4.97;;
15408;SDS011;7803;48.130;13.788;2022-08-27T00:33:24;5.22;;;4.78;;
15408;SDS011;7803;48.130;13.788;2022-08-27T00:36:27;5.32;;;4.93;;
15408;SDS011;7803;48.130;13.788;2022-08-27T00:39:30;5.47;;;4.95;;
15408;SDS011;7803;48.130;13.788;2022-08-27T00:42:32;6.38;;;5.15;;
15408;SDS011;7803;48.130;13.788;2022-08-27T00:45:35;5.18;;;4.68;;
15408;SDS011;7803;48.130;13.788;2022-08-27T00:48:39;5.85;;;5.28;;
15408;SDS011;7803;48.130;13.788;2022-08-27T00:51:41;5.30;;;4.80;;
15408;SDS011;7803;48.130;13.788;2022-08-27T00:54:46;5.78;;;5.20;;
15408;SDS011;7803;48.130;13.788;2022-08-27T00:57:51;5.05;;;4.65;;
15408;SDS011;7803;48.130;13.788;2022-08-27T01:00:58;6.03;;;5.20;;
15408;SDS011;7803;48.130;13.788;2022-08-27T01:04:01;5.55;;;5.05;;
15408;SDS011;7803;48.130;13.788;2022-08-27T01:07:07;5.65;;;5.15;;
15408;SDS011;7803;48.130;13.788;2022-08-27T01:10:12;5.40;;;4.90;;
15408;SDS011;7803;48.130;13.788;2022-08-27T01:13:18;4.68;;;4.28;;
15408;SDS011;7803;48.130;13.788;2022-08-27T01:16:23;5.32;;;4.88;;
15408;SDS011;7803;48.130;13.788;2022-08-27T01:19:29;5.10;;;4.70;;
15408;SDS011;7803;48.130;13.788;2022-08-27T01:22:36;6.15;;;5.32;;
15408;SDS011;7803;48.130;13.788;2022-08-27T01:25:47;6.97;;;5.85;;
15408;SDS011;7803;48.130;13.788;2022-08-27T01:28:50;6.88;;;5.72;;
15408;SDS011;7803;48.130;13.788;2022-08-27T01:31:55;6.60;;;5.90;;
15408;SDS011;7803;48.130;13.788;2022-08-27T01:35:00;6.53;;;5.93;;
15408;SDS011;7803;48.130;13.788;2022-08-27T01:38:04;7.45;;;6.57;;
15408;SDS011;7803;48.130;13.788;2022-08-27T01:41:07;7.47;;;6.68;;
15408;SDS011;7803;48.130;13.788;2022-08-27T01:44:09;8.02;;;6.80;;
15408;SDS011;7803;48.130;13.788;2022-08-27T01:47:11;6.90;;;6.05;;
15408;SDS011;7803;48.130;13.788;2022-08-27T01:50:15;8.10;;;6.60;;
15408;SDS011;7803;48.130;13.788;2022-08-27T01:53:20;7.68;;;6.30;;
15408;SDS011;7803;48.130;13.788;2022-08-27T01:56:25;7.20;;;6.50;;
15408;SDS011;7803;48.130;13.788;2022-08-27T01:59:27;6.90;;;6.20;;
15408;SDS011;7803;48.130;13.788;2022-08-27T02:02:29;6.80;;;6.10;;
15408;SDS011;7803;48.130;13.788;2022-08-27T02:05:31;7.60;;;6.25;;
15408;SDS011;7803;48.130;13.788;2022-08-27T02:08:34;7.72;;;6.60;;
15408;SDS011;7803;48.130;13.788;2022-08-27T02:11:37;7.70;;;6.50;;
15408;SDS011;7803;48.130;13.788;2022-08-27T02:14:39;8.27;;;6.53;;
15408;SDS011;7803;48.130;13.788;2022-08-27T02:17:41;6.90;;;6.20;;
15408;SDS011;7803;48.130;13.788;2022-08-27T02:20:44;7.10;;;6.40;;
15408;SDS011;7803;48.130;13.788;2022-08-27T02:23:48;7.13;;;6.22;;
15408;SDS011;7803;48.130;13.788;2022-08-27T02:26:51;6.43;;;5.82;;
15408;SDS011;7803;48.130;13.788;2022-08-27T02:29:54;6.50;;;5.90;;
15408;SDS011;7803;48.130;13.788;2022-08-27T02:32:56;6.75;;;6.05;;
15408;SDS011;7803;48.130;13.788;2022-08-27T02:35:59;6.32;;;5.72;;
15408;SDS011;7803;48.130;13.788;2022-08-27T02:39:01;6.75;;;6.07;;
15408;SDS011;7803;48.130;13.788;2022-08-27T02:42:05;6.75;;;5.93;;
15408;SDS011;7803;48.130;13.788;2022-08-27T02:45:07;6.45;;;5.85;;
15408;SDS011;7803;48.130;13.788;2022-08-27T02:48:09;6.20;;;5.60;;
15408;SDS011;7803;48.130;13.788;2022-08-27T02:51:11;6.57;;;5.95;;
15408;SDS011;7803;48.130;13.788;2022-08-27T02:54:14;6.07;;;5.47;;
15408;SDS011;7803;48.130;13.788;2022-08-27T02:57:17;8.15;;;6.05;;
15408;SDS011;7803;48.130;13.788;2022-08-27T03:00:19;7.70;;;5.85;;
15408;SDS011;7803;48.130;13.788;2022-08-27T03:03:23;6.38;;;5.78;;
15408;SDS011;7803;48.130;13.788;2022-08-27T03:06:25;6.40;;;5.80;;
15408;SDS011;7803;48.130;13.788;2022-08-27T03:09:27;6.82;;;6.20;;
15408;SDS011;7803;48.130;13.788;2022-08-27T03:12:30;7.18;;;5.95;;
15408;SDS011;7803;48.130;13.788;2022-08-27T03:15:33;6.95;;;6.25;;
15408;SDS011;7803;48.130;13.788;2022-08-27T03:18:35;6.93;;;6.22;;
15408;SDS011;7803;48.130;13.788;2022-08-27T03:21:37;7.03;;;6.32;;
15408;SDS011;7803;48.130;13.788;2022-08-27T03:24:39;7.25;;;6.13;;
15408;SDS011;7803;48.130;13.788;2022-08-27T03:27:42;6.70;;;5.80;;
15408;SDS011;7803;48.130;13.788;2022-08-27T03:30:46;7.05;;;6.35;;
15408;SDS011;7803;48.130;13.788;2022-08-27T03:33:51;6.72;;;6.03;;
15408;SDS011;7803;48.130;13.788;2022-08-27T03:36:54;6.40;;;5.80;;
15408;SDS011;7803;48.130;13.788;2022-08-27T03:39:57;6.00;;;5.38;;
15408;SDS011;7803;48.130;13.788;2022-08-27T03:43:00;5.97;;;5.40;;
15408;SDS011;7803;48.130;13.788;2022-08-27T03:46:02;6.57;;;5.82;;
15408;SDS011;7803;48.130;13.788;2022-08-27T03:49:04;6.13;;;5.53;;
15408;SDS011;7803;48.130;13.788;2022-08-27T03:52:07;6.95;;;6.00;;
15408;SDS011;7803;48.130;13.788;2022-08-27T03:55:09;7.53;;;6.40;;
15408;SDS011;7803;48.130;13.788;2022-08-27T03:58:12;6.07;;;5.47;;
15408;SDS011;7803;48.130;13.788;2022-08-27T04:01:15;7.10;;;6.05;;
15408;SDS011;7803;48.130;13.788;2022-08-27T04:04:18;6.95;;;5.50;;
15408;SDS011;7803;48.130;13.788;2022-08-27T04:07:20;6.70;;;6.10;;
15408;SDS011;7803;48.130;13.788;2022-08-27T04:10:22;6.38;;;5.78;;
15408;SDS011;7803;48.130;13.788;2022-08-27T04:13:25;6.38;;;5.78;;
15408;SDS011;7803;48.130;13.788;2022-08-27T04:16:27;6.20;;;5.70;;
15408;SDS011;7803;48.130;13.788;2022-08-27T04:19:29;7.47;;;5.78;;
15408;SDS011;7803;48.130;13.788;2022-08-27T04:22:33;6.03;;;5.53;;
15408;SDS011;7803;48.130;13.788;2022-08-27T04:25:37;6.45;;;5.90;;
15408;SDS011;7803;48.130;13.788;2022-08-27T04:28:40;6.22;;;5.50;;
15408;SDS011;7803;48.130;13.788;2022-08-27T04:31:43;6.30;;;5.70;;
15408;SDS011;7803;48.130;13.788;2022-08-27T04:34:45;6.80;;;6.20;;
15408;SDS011;7803;48.130;13.788;2022-08-27T04:37:47;6.65;;;5.93;;
15408;SDS011;7803;48.130;13.788;2022-08-27T04:40:49;6.50;;;5.90;;
15408;SDS011;7803;48.130;13.788;2022-08-27T04:44:10;6.53;;;5.90;;
15408;SDS011;7803;48.130;13.788;2022-08-27T04:47:12;6.50;;;5.65;;
15408;SDS011;7803;48.130;13.788;2022-08-27T04:50:15;7.00;;;6.30;;
15408;SDS011;7803;48.130;13.788;2022-08-27T04:53:17;6.90;;;6.20;;
15408;SDS011;7803;48.130;13.788;2022-08-27T04:56:20;6.65;;;6.00;;
15408;SDS011;7803;48.130;13.788;2022-08-27T04:59:24;7.07;;;6.40;;
15408;SDS011;7803;48.130;13.788;2022-08-27T05:02:26;6.97;;;6.28;;
15408;SDS011;7803;48.130;13.788;2022-08-27T05:05:28;7.25;;;6.65;;
15408;SDS011;7803;48.130;13.788;2022-08-27T05:08:30;7.90;;;7.10;;
15408;SDS011;7803;48.130;13.788;2022-08-27T05:11:33;7.38;;;6.68;;
15408;SDS011;7803;48.130;13.788;2022-08-27T05:14:36;7.72;;;6.95;;
15408;SDS011;7803;48.130;13.788;2022-08-27T05:17:38;8.35;;;7.38;;
15408;SDS011;7803;48.130;13.788;2022-08-27T05:20:41;8.15;;;7.15;;
15408;SDS011;7803;48.130;13.788;2022-08-27T05:23:46;8.15;;;6.82;;
15408;SDS011;7803;48.130;13.788;2022-08-27T05:26:48;7.78;;;7.05;;
15408;SDS011;7803;48.130;13.788;2022-08-27T05:29:52;7.57;;;6.88;;
15408;SDS011;7803;48.130;13.788;2022-08-27T05:32:54;9.10;;;7.57;;
15408;SDS011;7803;48.130;13.788;2022-08-27T05:35:56;8.27;;;7.47;;
15408;SDS011;7803;48.130;13.788;2022-08-27T05:39:01;8.48;;;7.68;;
15408;SDS011;7803;48.130;13.788;2022-08-27T05:42:05;9.00;;;7.15;;
15408;SDS011;7803;48.130;13.788;2022-08-27T05:45:09;8.70;;;7.82;;
15408;SDS011;7803;48.130;13.788;2022-08-27T05:48:12;7.85;;;7.05;;
15408;SDS011;7803;48.130;13.788;2022-08-27T05:51:15;8.20;;;7.40;;
15408;SDS011;7803;48.130;13.788;2022-08-27T05:54:18;9.68;;;8.13;;
15408;SDS011;7803;48.130;13.788;2022-08-27T05:57:20;8.32;;;7.53;;
15408;SDS011;7803;48.130;13.788;2022-08-27T06:00:24;8.63;;;7.72;;
15408;SDS011;7803;48.130;13.788;2022-08-27T06:03:43;9.50;;;8.07;;
15408;SDS011;7803;48.130;13.788;2022-08-27T06:06:45;8.57;;;7.78;;
15408;SDS011;7803;48.130;13.788;2022-08-27T06:09:48;8.50;;;7.60;;
15408;SDS011;7803;48.130;13.788;2022-08-27T06:12:50;8.40;;;7.60;;
15408;SDS011;7803;48.130;13.788;2022-08-27T06:16:00;8.82;;;7.90;;
15408;SDS011;7803;48.130;13.788;2022-08-27T06:19:03;8.50;;;7.70;;
15408;SDS011;7803;48.130;13.788;2022-08-27T06:22:06;8.55;;;7.75;;
15408;SDS011;7803;48.130;13.788;2022-08-27T06:25:08;8.30;;;7.00;;
15408;SDS011;7803;48.130;13.788;2022-08-27T06:28:10;8.13;;;7.20;;
15408;SDS011;7803;48.130;13.788;2022-08-27T06:31:14;8.93;;;7.18;;
15408;SDS011;7803;48.130;13.788;2022-08-27T06:34:18;9.00;;;7.20;;
15408;SDS011;7803;48.130;13.788;2022-08-27T06:37:20;9.10;;;7.10;;
15408;SDS011;7803;48.130;13.788;2022-08-27T06:40:22;11.38;;;7.50;;
15408;SDS011;7803;48.130;13.788;2022-08-27T06:43:24;9.90;;;7.90;;
15408;SDS011;7803;48.130;13.788;2022-08-27T06:46:28;14.75;;;9.23;;
15408;SDS011;7803;48.130;13.788;2022-08-27T06:49:30;15.98;;;8.93;;
15408;SDS011;7803;48.130;13.788;2022-08-27T06:52:33;17.75;;;10.18;;
15408;SDS011;7803;48.130;13.788;2022-08-27T06:55:39;16.80;;;10.25;;
15408;SDS011;7803;48.130;13.788;2022-08-27T06:58:42;17.73;;;9.73;;
15408;SDS011;7803;48.130;13.788;2022-08-27T07:01:47;15.73;;;9.73;;
15408;SDS011;7803;48.130;13.788;2022-08-27T07:04:51;13.35;;;8.88;;
15408;SDS011;7803;48.130;13.788;2022-08-27T07:07:53;14.10;;;9.10;;
15408;SDS011;7803;48.130;13.788;2022-08-27T07:10:55;11.52;;;9.18;;
15408;SDS011;7803;48.130;13.788;2022-08-27T07:13:58;14.18;;;9.30;;
15408;SDS011;7803;48.130;13.788;2022-08-27T07:17:01;16.70;;;9.45;;
15408;SDS011;7803;48.130;13.788;2022-08-27T07:20:04;18.70;;;10.57;;
15408;SDS011;7803;48.130;13.788;2022-08-27T07:23:07;22.10;;;11.73;;
15408;SDS011;7803;48.130;13.788;2022-08-27T07:26:10;22.45;;;11.57;;
15408;SDS011;7803;48.130;13.788;2022-08-27T07:29:14;14.50;;;9.43;;
15408;SDS011;7803;48.130;13.788;2022-08-27T07:32:18;17.05;;;9.82;;
15408;SDS011;7803;48.130;13.788;2022-08-27T07:35:20;13.70;;;9.60;;
15408;SDS011;7803;48.130;13.788;2022-08-27T07:38:22;11.60;;;8.13;;
15408;SDS011;7803;48.130;13.788;2022-08-27T07:41:24;11.82;;;8.27;;
15408;SDS011;7803;48.130;13.788;2022-08-27T07:44:26;11.25;;;8.35;;
15408;SDS011;7803;48.130;13.788;2022-08-27T07:47:29;10.80;;;7.80;;
15408;SDS011;7803;48.130;13.788;2022-08-27T07:50:32;9.10;;;7.40;;
15408;SDS011;7803;48.130;13.788;2022-08-27T07:53:34;9.75;;;7.22;;
15408;SDS011;7803;48.130;13.788;2022-08-27T07:56:36;8.85;;;7.05;;
15408;SDS011;7803;48.130;13.788;2022-08-27T07:59:38;9.48;;;7.63;;
15408;SDS011;7803;48.130;13.788;2022-08-27T08:02:41;8.98;;;7.40;;
15408;SDS011;7803;48.130;13.788;2022-08-27T08:05:46;8.82;;;7.00;;
15408;SDS011;7803;48.130;13.788;2022-08-27T08:08:48;8.07;;;7.25;;
15408;SDS011;7803;48.130;13.788;2022-08-27T08:11:50;7.60;;;6.82;;
15408;SDS011;7803;48.130;13.788;2022-08-27T08:14:53;7.53;;;6.75;;
15408;SDS011;7803;48.130;13.788;2022-08-27T08:17:58;9.10;;;6.80;;
15408;SDS011;7803;48.130;13.788;2022-08-27T08:21:01;7.88;;;7.13;;
15408;SDS011;7803;48.130;13.788;2022-08-27T08:24:04;7.90;;;7.05;;
15408;SDS011;7803;48.130;13.788;2022-08-27T08:27:06;7.65;;;6.95;;
15408;SDS011;7803;48.130;13.788;2022-08-27T08:30:10;8.07;;;7.28;;
15408;SDS011;7803;48.130;13.788;2022-08-27T08:33:14;7.63;;;6.93;;
15408;SDS011;7803;48.130;13.788;2022-08-27T08:36:16;9.25;;;7.22;;
15408;SDS011;7803;48.130;13.788;2022-08-27T08:39:18;8.15;;;7.35;;
15408;SDS011;7803;48.130;13.788;2022-08-27T08:42:30;8.15;;;6.82;;
15408;SDS011;7803;48.130;13.788;2022-08-27T08:45:37;8.57;;;7.38;;
15408;SDS011;7803;48.130;13.788;2022-08-27T08:48:44;7.82;;;7.07;;
15408;SDS011;7803;48.130;13.788;2022-08-27T08:51:49;7.78;;;6.88;;
15408;SDS011;7803;48.130;13.788;2022-08-27T08:54:57;7.40;;;6.65;;
15408;SDS011;7803;48.130;13.788;2022-08-27T08:58:12;7.32;;;6.63;;
15408;SDS011;7803;48.130;13.788;2022-08-27T09:01:20;8.65;;;6.63;;
15408;SDS011;7803;48.130;13.788;2022-08-27T09:04:25;8.00;;;6.35;;
15408;SDS011;7803;48.130;13.788;2022-08-27T09:07:29;10.20;;;7.25;;
15408;SDS011;7803;48.130;13.788;2022-08-27T09:10:37;9.15;;;6.90;;
15408;SDS011;7803;48.130;13.788;2022-08-27T09:13:46;6.90;;;6.25;;
15408;SDS011;7803;48.130;13.788;2022-08-27T09:16:50;7.68;;;6.75;;
15408;SDS011;7803;48.130;13.788;2022-08-27T09:19:54;7.50;;;6.57;;
15408;SDS011;7803;48.130;13.788;2022-08-27T09:22:56;8.48;;;7.40;;
15408;SDS011;7803;48.130;13.788;2022-08-27T09:26:15;8.95;;;7.38;;
15408;SDS011;7803;48.130;13.788;2022-08-27T09:29:19;8.65;;;6.95;;
15408;SDS011;7803;48.130;13.788;2022-08-27T09:32:26;9.95;;;7.05;;
15408;SDS011;7803;48.130;13.788;2022-08-27T09:35:35;8.90;;;8.00;;
15408;SDS011;7803;48.130;13.788;2022-08-27T09:38:49;8.50;;;7.30;;
15408;SDS011;7803;48.130;13.788;2022-08-27T09:41:53;8.75;;;7.75;;
15408;SDS011;7803;48.130;13.788;2022-08-27T09:44:56;9.60;;;8.38;;
15408;SDS011;7803;48.130;13.788;2022-08-27T09:48:02;8.88;;;7.97;;
15408;SDS011;7803;48.130;13.788;2022-08-27T09:51:09;9.18;;;8.27;;
15408;SDS011;7803;48.130;13.788;2022-08-27T09:54:25;9.38;;;8.48;;
15408;SDS011;7803;48.130;13.788;2022-08-27T09:57:38;9.00;;;8.20;;
15408;SDS011;7803;48.130;13.788;2022-08-27T10:00:41;8.95;;;8.05;;
15408;SDS011;7803;48.130;13.788;2022-08-27T10:03:43;8.77;;;7.88;;
15408;SDS011;7803;48.130;13.788;2022-08-27T10:06:47;8.65;;;7.50;;
15408;SDS011;7803;48.130;13.788;2022-08-27T10:09:52;9.43;;;8.10;;
15408;SDS011;7803;48.130;13.788;2022-08-27T10:13:00;8.07;;;7.28;;
15408;SDS011;7803;48.130;13.788;2022-08-27T10:16:08;9.07;;;7.93;;
15408;SDS011;7803;48.130;13.788;2022-08-27T10:22:55;7.80;;;7.10;;
15408;SDS011;7803;48.130;13.788;2022-08-27T10:26:07;8.57;;;7.55;;
15408;SDS011;7803;48.130;13.788;2022-08-27T10:29:14;8.70;;;7.32;;
15408;SDS011;7803;48.130;13.788;2022-08-27T10:32:34;7.97;;;7.13;;
15408;SDS011;7803;48.130;13.788;2022-08-27T10:35:49;9.50;;;7.32;;
15408;SDS011;7803;48.130;13.788;2022-08-27T10:39:02;8.13;;;7.03;;
15408;SDS011;7803;48.130;13.788;2022-08-27T10:42:10;7.50;;;6.68;;
15408;SDS011;7803;48.130;13.788;2022-08-27T10:45:21;7.38;;;6.78;;
15408;SDS011;7803;48.130;13.788;2022-08-27T10:48:34;7.88;;;7.10;;
15408;SDS011;7803;48.130;13.788;2022-08-27T10:51:43;7.90;;;7.10;;
15408;SDS011;7803;48.130;13.788;2022-08-27T10:54:55;7.68;;;6.88;;
15408;SDS011;7803;48.130;13.788;2022-08-27T10:58:11;8.35;;;7.13;;
15408;SDS011;7803;48.130;13.788;2022-08-27T11:01:24;8.38;;;7.57;;
15408;SDS011;7803;48.130;13.788;2022-08-27T11:04:34;8.35;;;7.57;;
15408;SDS011;7803;48.130;13.788;2022-08-27T11:07:41;8.18;;;7.40;;
15408;SDS011;7803;48.130;13.788;2022-08-27T11:10:48;9.00;;;7.45;;
15408;SDS011;7803;48.130;13.788;2022-08-27T11:13:53;10.00;;;7.78;;
15408;SDS011;7803;48.130;13.788;2022-08-27T11:16:58;9.13;;;7.80;;
15408;SDS011;7803;48.130;13.788;2022-08-27T11:20:05;8.80;;;7.63;;
15408;SDS011;7803;48.130;13.788;2022-08-27T11:23:12;8.30;;;7.18;;
15408;SDS011;7803;48.130;13.788;2022-08-27T11:26:19;8.07;;;7.10;;
15408;SDS011;7803;48.130;13.788;2022-08-27T11:29:23;11.07;;;7.40;;
15408;SDS011;7803;48.130;13.788;2022-08-27T11:32:29;9.48;;;7.35;;
15408;SDS011;7803;48.130;13.788;2022-08-27T11:35:42;9.93;;;7.50;;
15408;SDS011;7803;48.130;13.788;2022-08-27T11:38:57;10.27;;;7.55;;
15408;SDS011;7803;48.130;13.788;2022-08-27T11:42:08;10.63;;;6.68;;
15408;SDS011;7803;48.130;13.788;2022-08-27T11:45:18;12.23;;;7.35;;
15408;SDS011;7803;48.130;13.788;2022-08-27T11:48:25;12.05;;;7.90;;
15408;SDS011;7803;48.130;13.788;2022-08-27T11:51:32;11.85;;;6.85;;
15408;SDS011;7803;48.130;13.788;2022-08-27T11:54:43;11.30;;;8.80;;
15408;SDS011;7803;48.130;13.788;2022-08-27T11:57:48;9.02;;;7.45;;
15408;SDS011;7803;48.130;13.788;2022-08-27T12:01:02;8.63;;;7.75;;
15408;SDS011;7803;48.130;13.788;2022-08-27T12:04:21;8.77;;;7.95;;
15408;SDS011;7803;48.130;13.788;2022-08-27T12:07:33;8.98;;;8.18;;
15408;SDS011;7803;48.130;13.788;2022-08-27T12:10:37;8.93;;;8.00;;
15408;SDS011;7803;48.130;13.788;2022-08-27T12:13:54;10.02;;;9.02;;
15408;SDS011;7803;48.130;13.788;2022-08-27T12:17:02;9.18;;;8.38;;
15408;SDS011;7803;48.130;13.788;2022-08-27T12:20:15;9.25;;;8.07;;
15408;SDS011;7803;48.130;13.788;2022-08-27T12:23:25;10.23;;;9.23;;
15408;SDS011;7803;48.130;13.788;2022-08-27T12:26:52;14.40;;;13.00;;
15408;SDS011;7803;48.130;13.788;2022-08-27T12:29:58;10.50;;;9.50;;
15408;SDS011;7803;48.130;13.788;2022-08-27T12:33:08;10.07;;;9.27;;
15408;SDS011;7803;48.130;13.788;2022-08-27T12:36:14;9.68;;;8.80;;
15408;SDS011;7803;48.130;13.788;2022-08-27T12:39:22;9.93;;;8.95;;
15408;SDS011;7803;48.130;13.788;2022-08-27T12:42:27;9.77;;;8.98;;
15408;SDS011;7803;48.130;13.788;2022-08-27T12:45:31;9.63;;;8.43;;
15408;SDS011;7803;48.130;13.788;2022-08-27T12:48:35;10.88;;;9.02;;
15408;SDS011;7803;48.130;13.788;2022-08-27T12:51:41;9.70;;;8.90;;
15408;SDS011;7803;48.130;13.788;2022-08-27T12:54:49;10.05;;;9.15;;
15408;SDS011;7803;48.130;13.788;2022-08-27T12:58:04;9.10;;;8.30;;
15408;SDS011;7803;48.130;13.788;2022-08-27T13:01:21;9.25;;;8.35;;
15408;SDS011;7803;48.130;13.788;2022-08-27T13:04:31;8.80;;;8.10;;
15408;SDS011;7803;48.130;13.788;2022-08-27T13:07:38;8.77;;;7.97;;
15408;SDS011;7803;48.130;13.788;2022-08-27T13:10:42;9.07;;;8.23;;
15408;SDS011;7803;48.130;13.788;2022-08-27T13:13:44;10.02;;;8.60;;
15408;SDS011;7803;48.130;13.788;2022-08-27T13:16:49;9.57;;;8.63;;
15408;SDS011;7803;48.130;13.788;2022-08-27T13:19:54;9.25;;;8.07;;
15408;SDS011;7803;48.130;13.788;2022-08-27T13:22:59;9.48;;;8.57;;
15408;SDS011;7803;48.130;13.788;2022-08-27T13:26:05;9.10;;;8.30;;
15408;SDS011;7803;48.130;13.788;2022-08-27T13:29:08;8.80;;;7.93;;
15408;SDS011;7803;48.130;13.788;2022-08-27T13:32:11;9.52;;;8.63;;
15408;SDS011;7803;48.130;13.788;2022-08-27T13:35:15;8.88;;;7.88;;
15408;SDS011;7803;48.130;13.788;2022-08-27T13:38:18;9.77;;;8.63;;
15408;SDS011;7803;48.130;13.788;2022-08-27T13:41:25;10.15;;;8.60;;
15408;SDS011;7803;48.130;13.788;2022-08-27T13:44:30;9.55;;;8.68;;
15408;SDS011;7803;48.130;13.788;2022-08-27T13:47:41;9.45;;;7.65;;
15408;SDS011;7803;48.130;13.788;2022-08-27T13:50:50;8.93;;;8.13;;
15408;SDS011;7803;48.130;13.788;2022-08-27T13:53:54;9.02;;;8.13;;
15408;SDS011;7803;48.130;13.788;2022-08-27T13:57:10;8.63;;;7.82;;
15408;SDS011;7803;48.130;13.788;2022-08-27T14:00:25;8.57;;;7.75;;
15408;SDS011;7803;48.130;13.788;2022-08-27T14:03:48;8.45;;;7.65;;
15408;SDS011;7803;48.130;13.788;2022-08-27T14:06:55;8.13;;;7.38;;
15408;SDS011;7803;48.130;13.788;2022-08-27T14:09:58;8.10;;;7.30;;
15408;SDS011;7803;48.130;13.788;2022-08-27T14:13:04;8.45;;;7.38;;
15408;SDS011;7803;48.130;13.788;2022-08-27T14:16:12;7.70;;;7.00;;
15408;SDS011;7803;48.130;13.788;2022-08-27T14:19:24;7.72;;;6.95;;
15408;SDS011;7803;48.130;13.788;2022-08-27T14:22:28;8.68;;;7.88;;
15408;SDS011;7803;48.130;13.788;2022-08-27T14:25:30;8.30;;;7.50;;
15408;SDS011;7803;48.130;13.788;2022-08-27T14:28:33;8.82;;;8.07;;
15408;SDS011;7803;48.130;13.788;2022-08-27T14:31:35;9.00;;;8.10;;
15408;SDS011;7803;48.130;13.788;2022-08-27T14:34:39;10.63;;;9.32;;
15408;SDS011;7803;48.130;13.788;2022-08-27T14:37:41;12.25;;;10.00;;
15408;SDS011;7803;48.130;13.788;2022-08-27T14:40:45;9.50;;;8.63;;
15408;SDS011;7803;48.130;13.788;2022-08-27T14:43:48;10.57;;;9.32;;
15408;SDS011;7803;48.130;13.788;2022-08-27T14:46:50;9.90;;;8.90;;
15408;SDS011;7803;48.130;13.788;2022-08-27T14:49:54;11.98;;;9.02;;
15408;SDS011;7803;48.130;13.788;2022-08-27T14:52:56;9.07;;;8.27;;
15408;SDS011;7803;48.130;13.788;2022-08-27T14:55:58;9.07;;;8.18;;
15408;SDS011;7803;48.130;13.788;2022-08-27T14:59:00;10.18;;;8.80;;
15408;SDS011;7803;48.130;13.788;2022-08-27T15:02:03;10.13;;;9.13;;
15408;SDS011;7803;48.130;13.788;2022-08-27T15:05:09;8.52;;;7.63;;
15408;SDS011;7803;48.130;13.788;2022-08-27T15:08:11;8.85;;;8.00;;
15408;SDS011;7803;48.130;13.788;2022-08-27T15:11:15;8.82;;;7.93;;
15408;SDS011;7803;48.130;13.788;2022-08-27T15:14:20;9.23;;;8.32;;
15408;SDS011;7803;48.130;13.788;2022-08-27T15:17:24;9.77;;;8.60;;
15408;SDS011;7803;48.130;13.788;2022-08-27T15:20:27;8.82;;;8.10;;
15408;SDS011;7803;48.130;13.788;2022-08-27T15:23:29;9.18;;;8.27;;
15408;SDS011;7803;48.130;13.788;2022-08-27T15:26:31;9.82;;;8.82;;
15408;SDS011;7803;48.130;13.788;2022-08-27T15:29:34;9.52;;;8.60;;
15408;SDS011;7803;48.130;13.788;2022-08-27T15:32:38;9.30;;;8.48;;
15408;SDS011;7803;48.130;13.788;2022-08-27T15:35:44;9.38;;;8.57;;
15408;SDS011;7803;48.130;13.788;2022-08-27T15:38:46;9.95;;;8.10;;
15408;SDS011;7803;48.130;13.788;2022-08-27T15:41:48;9.35;;;8.55;;
15408;SDS011;7803;48.130;13.788;2022-08-27T15:44:52;9.43;;;8.52;;
15408;SDS011;7803;48.130;13.788;2022-08-27T15:47:55;9.32;;;8.52;;
15408;SDS011;7803;48.130;13.788;2022-08-27T15:51:01;8.68;;;7.90;;
15408;SDS011;7803;48.130;13.788;2022-08-27T15:54:06;10.20;;;8.32;;
15408;SDS011;7803;48.130;13.788;2022-08-27T15:57:08;9.23;;;8.32;;
15408;SDS011;7803;48.130;13.788;2022-08-27T16:00:11;8.65;;;7.95;;
15408;SDS011;7803;48.130;13.788;2022-08-27T16:03:15;8.35;;;7.55;;
15408;SDS011;7803;48.130;13.788;2022-08-27T16:06:18;8.73;;;7.90;;
15408;SDS011;7803;48.130;13.788;2022-08-27T16:09:21;8.68;;;7.72;;
15408;SDS011;7803;48.130;13.788;2022-08-27T16:12:23;8.60;;;7.80;;
15408;SDS011;7803;48.130;13.788;2022-08-27T16:15:25;8.60;;;7.55;;
15408;SDS011;7803;48.130;13.788;2022-08-27T16:18:28;8.52;;;7.72;;
15408;SDS011;7803;48.130;13.788;2022-08-27T16:21:33;7.78;;;6.97;;
15408;SDS011;7803;48.130;13.788;2022-08-27T16:24:35;7.32;;;6.72;;
15408;SDS011;7803;48.130;13.788;2022-08-27T16:27:37;7.10;;;6.50;;
15408;SDS011;7803;48.130;13.788;2022-08-27T16:30:39;7.53;;;6.82;;
15408;SDS011;7803;48.130;13.788;2022-08-27T16:33:42;8.93;;;6.80;;
15408;SDS011;7803;48.130;13.788;2022-08-27T16:36:46;8.10;;;7.30;;
15408;SDS011;7803;48.130;13.788;2022-08-27T16:39:48;9.05;;;7.22;;
15408;SDS011;7803;48.130;13.788;2022-08-27T16:42:50;9.40;;;7.70;;
15408;SDS011;7803;48.130;13.788;2022-08-27T16:45:53;7.20;;;6.53;;
15408;SDS011;7803;48.130;13.788;2022-08-27T16:48:57;9.10;;;6.72;;
15408;SDS011;7803;48.130;13.788;2022-08-27T16:52:17;10.63;;;7.35;;
15408;SDS011;7803;48.130;13.788;2022-08-27T16:55:21;8.73;;;7.47;;
15408;SDS011;7803;48.130;13.788;2022-08-27T16:58:24;44.47;;;23.10;;
15408;SDS011;7803;48.130;13.788;2022-08-27T17:01:28;14.07;;;11.75;;
15408;SDS011;7803;48.130;13.788;2022-08-27T17:04:30;13.23;;;11.10;;
15408;SDS011;7803;48.130;13.788;2022-08-27T17:07:33;14.32;;;10.55;;
15408;SDS011;7803;48.130;13.788;2022-08-27T17:10:36;8.98;;;8.07;;
15408;SDS011;7803;48.130;13.788;2022-08-27T17:13:41;14.20;;;8.35;;
15408;SDS011;7803;48.130;13.788;2022-08-27T17:16:44;9.98;;;7.97;;
15408;SDS011;7803;48.130;13.788;2022-08-27T17:19:46;9.65;;;8.00;;
15408;SDS011;7803;48.130;13.788;2022-08-27T17:22:49;12.25;;;9.73;;
15408;SDS011;7803;48.130;13.788;2022-08-27T17:25:51;10.82;;;9.70;;
15408;SDS011;7803;48.130;13.788;2022-08-27T17:28:53;12.00;;;9.57;;
15408;SDS011;7803;48.130;13.788;2022-08-27T17:31:55;10.82;;;8.68;;
15408;SDS011;7803;48.130;13.788;2022-08-27T17:34:57;11.05;;;8.73;;
15408;SDS011;7803;48.130;13.788;2022-08-27T17:38:01;9.35;;;7.90;;
15408;SDS011;7803;48.130;13.788;2022-08-27T17:41:05;8.93;;;8.02;;
15408;SDS011;7803;48.130;13.788;2022-08-27T17:44:14;9.75;;;7.50;;
15408;SDS011;7803;48.130;13.788;2022-08-27T17:47:23;12.02;;;7.72;;
15408;SDS011;7803;48.130;13.788;2022-08-27T17:50:26;10.05;;;7.72;;
15408;SDS011;7803;48.130;13.788;2022-08-27T17:53:29;8.80;;;7.35;;
15408;SDS011;7803;48.130;13.788;2022-08-27T17:56:31;9.40;;;6.80;;
15408;SDS011;7803;48.130;13.788;2022-08-27T17:59:33;7.78;;;6.88;;
15408;SDS011;7803;48.130;13.788;2022-08-27T18:02:36;8.32;;;7.10;;
15408;SDS011;7803;48.130;13.788;2022-08-27T18:05:39;7.75;;;6.65;;
15408;SDS011;7803;48.130;13.788;2022-08-27T18:08:43;10.93;;;7.43;;
15408;SDS011;7803;48.130;13.788;2022-08-27T18:11:45;12.93;;;8.07;;
15408;SDS011;7803;48.130;13.788;2022-08-27T18:14:48;16.88;;;8.93;;
15408;SDS011;7803;48.130;13.788;2022-08-27T18:17:54;21.02;;;10.88;;
15408;SDS011;7803;48.130;13.788;2022-08-27T18:20:57;22.63;;;10.32;;
15408;SDS011;7803;48.130;13.788;2022-08-27T18:24:01;24.52;;;11.13;;
15408;SDS011;7803;48.130;13.788;2022-08-27T18:27:03;25.42;;;12.32;;
15408;SDS011;7803;48.130;13.788;2022-08-27T18:30:06;20.63;;;10.23;;
15408;SDS011;7803;48.130;13.788;2022-08-27T18:33:11;15.75;;;8.93;;
15408;SDS011;7803;48.130;13.788;2022-08-27T18:36:13;14.52;;;8.80;;